sensor_id;sensor_type;location;lat;lon;timestamp;P1;durP1;ratioP1;P2;durP2;ratioP2
32535;SDS011;18974;50.838;4.636;2022-08-20T00:00:26;10.70;;;5.97;;
32535;SDS011;18974;50.838;4.636;2022-08-20T00:02:54;8.38;;;5.43;;
32535;SDS011;18974;50.838;4.636;2022-08-20T00:05:30;9.90;;;5.30;;
32535;SDS011;18974;50.838;4.636;2022-08-20T00:08:01;11.27;;;6.38;;
32535;SDS011;18974;50.838;4.636;2022-08-20T00:10:29;11.65;;;5.80;;
32535;SDS011;18974;50.838;4.636;2022-08-20T00:12:56;12.93;;;6.22;;
32535;SDS011;18974;50.838;4.636;2022-08-20T00:15:23;10.10;;;6.35;;
32535;SDS011;18974;50.838;4.636;2022-08-20T00:17:52;10.32;;;5.47;;
32535;SDS011;18974;50.838;4.636;2022-08-20T00:20:20;12.45;;;6.15;;
32535;SDS011;18974;50.838;4.636;2022-08-20T00:22:48;9.18;;;6.32;;
32535;SDS011;18974;50.838;4.636;2022-08-20T00:25:18;13.95;;;6.85;;
32535;SDS011;18974;50.838;4.636;2022-08-20T00:27:44;14.13;;;7.07;;
32535;SDS011;18974;50.838;4.636;2022-08-20T00:30:10;16.13;;;7.47;;
32535;SDS011;18974;50.838;4.636;2022-08-20T00:32:44;13.63;;;7.63;;
32535;SDS011;18974;50.838;4.636;2022-08-20T00:35:13;11.57;;;7.32;;
32535;SDS011;18974;50.838;4.636;2022-08-20T00:37:40;12.68;;;7.18;;
32535;SDS011;18974;50.838;4.636;2022-08-20T00:40:06;9.60;;;6.55;;
32535;SDS011;18974;50.838;4.636;2022-08-20T00:42:45;10.88;;;6.55;;
32535;SDS011;18974;50.838;4.636;2022-08-20T00:45:14;8.48;;;6.05;;
32535;SDS011;18974;50.838;4.636;2022-08-20T00:47:42;15.70;;;6.60;;
32535;SDS011;18974;50.838;4.636;2022-08-20T00:50:10;10.90;;;6.65;;
32535;SDS011;18974;50.838;4.636;2022-08-20T00:52:38;14.73;;;6.78;;
32535;SDS011;18974;50.838;4.636;2022-08-20T00:55:06;13.68;;;6.35;;
32535;SDS011;18974;50.838;4.636;2022-08-20T00:57:37;9.70;;;6.50;;
32535;SDS011;18974;50.838;4.636;2022-08-20T01:00:12;10.77;;;6.75;;
32535;SDS011;18974;50.838;4.636;2022-08-20T01:02:43;16.25;;;6.53;;
32535;SDS011;18974;50.838;4.636;2022-08-20T01:05:11;12.40;;;6.00;;
32535;SDS011;18974;50.838;4.636;2022-08-20T01:07:37;12.45;;;6.32;;
32535;SDS011;18974;50.838;4.636;2022-08-20T01:10:10;13.02;;;6.32;;
32535;SDS011;18974;50.838;4.636;2022-08-20T01:12:41;12.18;;;5.72;;
32535;SDS011;18974;50.838;4.636;2022-08-20T01:15:10;10.50;;;5.85;;
32535;SDS011;18974;50.838;4.636;2022-08-20T01:17:41;9.43;;;5.60;;
32535;SDS011;18974;50.838;4.636;2022-08-20T01:20:11;11.25;;;4.70;;
32535;SDS011;18974;50.838;4.636;2022-08-20T01:28:10;12.48;;;5.60;;
32535;SDS011;18974;50.838;4.636;2022-08-20T01:30:39;8.93;;;4.90;;
32535;SDS011;18974;50.838;4.636;2022-08-20T01:33:06;13.02;;;5.20;;
32535;SDS011;18974;50.838;4.636;2022-08-20T01:35:38;11.25;;;5.30;;
32535;SDS011;18974;50.838;4.636;2022-08-20T01:38:05;11.70;;;4.78;;
32535;SDS011;18974;50.838;4.636;2022-08-20T01:40:37;15.05;;;4.88;;
32535;SDS011;18974;50.838;4.636;2022-08-20T01:43:21;12.10;;;4.85;;
32535;SDS011;18974;50.838;4.636;2022-08-20T01:45:48;12.55;;;5.03;;
32535;SDS011;18974;50.838;4.636;2022-08-20T01:48:15;12.95;;;5.20;;
32535;SDS011;18974;50.838;4.636;2022-08-20T01:50:42;12.05;;;5.45;;
32535;SDS011;18974;50.838;4.636;2022-08-20T01:53:24;7.60;;;5.00;;
32535;SDS011;18974;50.838;4.636;2022-08-20T01:55:58;12.30;;;5.15;;
32535;SDS011;18974;50.838;4.636;2022-08-20T01:58:25;15.85;;;5.20;;
32535;SDS011;18974;50.838;4.636;2022-08-20T02:00:53;12.30;;;4.80;;
32535;SDS011;18974;50.838;4.636;2022-08-20T02:03:20;13.82;;;5.28;;
32535;SDS011;18974;50.838;4.636;2022-08-20T02:05:46;6.82;;;4.07;;
32535;SDS011;18974;50.838;4.636;2022-08-20T02:08:12;8.23;;;4.35;;
32535;SDS011;18974;50.838;4.636;2022-08-20T02:10:38;19.63;;;5.28;;
32535;SDS011;18974;50.838;4.636;2022-08-20T02:13:05;18.08;;;5.57;;
32535;SDS011;18974;50.838;4.636;2022-08-20T02:15:33;11.82;;;4.72;;
32535;SDS011;18974;50.838;4.636;2022-08-20T02:18:02;14.13;;;5.07;;
32535;SDS011;18974;50.838;4.636;2022-08-20T02:20:30;9.00;;;4.43;;
32535;SDS011;18974;50.838;4.636;2022-08-20T02:22:56;16.05;;;5.15;;
32535;SDS011;18974;50.838;4.636;2022-08-20T02:25:25;11.02;;;4.60;;
32535;SDS011;18974;50.838;4.636;2022-08-20T02:27:53;18.20;;;4.93;;
32535;SDS011;18974;50.838;4.636;2022-08-20T02:30:21;14.98;;;4.28;;
32535;SDS011;18974;50.838;4.636;2022-08-20T02:32:49;13.95;;;4.60;;
32535;SDS011;18974;50.838;4.636;2022-08-20T02:35:15;11.10;;;4.70;;
32535;SDS011;18974;50.838;4.636;2022-08-20T02:37:43;15.85;;;5.32;;
32535;SDS011;18974;50.838;4.636;2022-08-20T02:40:11;11.07;;;4.85;;
32535;SDS011;18974;50.838;4.636;2022-08-20T02:42:41;17.50;;;5.55;;
32535;SDS011;18974;50.838;4.636;2022-08-20T02:45:08;15.82;;;5.38;;
32535;SDS011;18974;50.838;4.636;2022-08-20T02:47:35;14.38;;;4.85;;
32535;SDS011;18974;50.838;4.636;2022-08-20T02:50:01;19.38;;;5.05;;
32535;SDS011;18974;50.838;4.636;2022-08-20T02:52:28;11.27;;;5.05;;
32535;SDS011;18974;50.838;4.636;2022-08-20T02:54:54;14.13;;;5.00;;
32535;SDS011;18974;50.838;4.636;2022-08-20T02:57:19;16.52;;;5.00;;
32535;SDS011;18974;50.838;4.636;2022-08-20T02:59:46;16.80;;;5.28;;
32535;SDS011;18974;50.838;4.636;2022-08-20T03:02:13;14.88;;;5.63;;
32535;SDS011;18974;50.838;4.636;2022-08-20T03:04:39;16.67;;;5.43;;
32535;SDS011;18974;50.838;4.636;2022-08-20T03:07:07;13.70;;;4.95;;
32535;SDS011;18974;50.838;4.636;2022-08-20T03:09:34;16.63;;;6.28;;
32535;SDS011;18974;50.838;4.636;2022-08-20T03:12:00;16.60;;;6.30;;
32535;SDS011;18974;50.838;4.636;2022-08-20T03:14:26;13.75;;;5.43;;
32535;SDS011;18974;50.838;4.636;2022-08-20T03:16:52;15.05;;;5.93;;
32535;SDS011;18974;50.838;4.636;2022-08-20T03:19:18;18.50;;;4.78;;
32535;SDS011;18974;50.838;4.636;2022-08-20T03:21:44;18.98;;;5.70;;
32535;SDS011;18974;50.838;4.636;2022-08-20T03:24:10;12.25;;;5.05;;
32535;SDS011;18974;50.838;4.636;2022-08-20T03:26:35;26.13;;;6.15;;
32535;SDS011;18974;50.838;4.636;2022-08-20T03:29:01;13.35;;;5.60;;
32535;SDS011;18974;50.838;4.636;2022-08-20T03:31:28;12.52;;;5.82;;
32535;SDS011;18974;50.838;4.636;2022-08-20T03:33:54;14.32;;;5.57;;
32535;SDS011;18974;50.838;4.636;2022-08-20T03:36:20;12.15;;;5.90;;
32535;SDS011;18974;50.838;4.636;2022-08-20T03:38:47;16.55;;;5.72;;
32535;SDS011;18974;50.838;4.636;2022-08-20T03:41:13;15.07;;;5.65;;
32535;SDS011;18974;50.838;4.636;2022-08-20T03:43:39;21.17;;;6.47;;
32535;SDS011;18974;50.838;4.636;2022-08-20T03:46:05;16.02;;;6.10;;
32535;SDS011;18974;50.838;4.636;2022-08-20T03:48:32;15.80;;;6.80;;
32535;SDS011;18974;50.838;4.636;2022-08-20T03:50:57;13.88;;;5.75;;
32535;SDS011;18974;50.838;4.636;2022-08-20T03:53:25;16.40;;;6.03;;
32535;SDS011;18974;50.838;4.636;2022-08-20T03:55:56;19.95;;;7.82;;
32535;SDS011;18974;50.838;4.636;2022-08-20T03:58:25;16.52;;;6.25;;
32535;SDS011;18974;50.838;4.636;2022-08-20T04:00:52;15.80;;;6.00;;
32535;SDS011;18974;50.838;4.636;2022-08-20T04:03:19;15.30;;;6.25;;
32535;SDS011;18974;50.838;4.636;2022-08-20T04:05:46;17.23;;;6.05;;
32535;SDS011;18974;50.838;4.636;2022-08-20T04:08:17;15.70;;;6.20;;
32535;SDS011;18974;50.838;4.636;2022-08-20T04:10:46;18.73;;;6.32;;
32535;SDS011;18974;50.838;4.636;2022-08-20T04:13:12;14.95;;;6.22;;
32535;SDS011;18974;50.838;4.636;2022-08-20T04:15:38;18.30;;;6.53;;
32535;SDS011;18974;50.838;4.636;2022-08-20T04:18:05;23.55;;;7.20;;
32535;SDS011;18974;50.838;4.636;2022-08-20T04:20:33;22.27;;;7.07;;
32535;SDS011;18974;50.838;4.636;2022-08-20T04:23:01;18.00;;;5.72;;
32535;SDS011;18974;50.838;4.636;2022-08-20T04:25:28;20.95;;;7.47;;
32535;SDS011;18974;50.838;4.636;2022-08-20T04:27:56;19.00;;;6.75;;
32535;SDS011;18974;50.838;4.636;2022-08-20T04:30:23;23.27;;;6.72;;
32535;SDS011;18974;50.838;4.636;2022-08-20T04:32:49;16.35;;;7.30;;
32535;SDS011;18974;50.838;4.636;2022-08-20T04:35:16;24.40;;;6.97;;
32535;SDS011;18974;50.838;4.636;2022-08-20T04:37:43;16.65;;;6.85;;
32535;SDS011;18974;50.838;4.636;2022-08-20T04:40:12;27.67;;;7.38;;
32535;SDS011;18974;50.838;4.636;2022-08-20T04:42:58;27.33;;;7.22;;
32535;SDS011;18974;50.838;4.636;2022-08-20T04:45:24;24.40;;;6.65;;
32535;SDS011;18974;50.838;4.636;2022-08-20T04:47:50;18.83;;;7.25;;
32535;SDS011;18974;50.838;4.636;2022-08-20T04:50:17;24.23;;;7.50;;
32535;SDS011;18974;50.838;4.636;2022-08-20T04:52:43;19.30;;;8.30;;
32535;SDS011;18974;50.838;4.636;2022-08-20T04:55:09;24.33;;;8.98;;
32535;SDS011;18974;50.838;4.636;2022-08-20T04:57:35;25.77;;;8.00;;
32535;SDS011;18974;50.838;4.636;2022-08-20T05:00:06;23.25;;;8.23;;
32535;SDS011;18974;50.838;4.636;2022-08-20T05:02:34;28.25;;;6.93;;
32535;SDS011;18974;50.838;4.636;2022-08-20T05:05:00;33.15;;;9.65;;
32535;SDS011;18974;50.838;4.636;2022-08-20T05:07:26;30.42;;;8.43;;
32535;SDS011;18974;50.838;4.636;2022-08-20T05:09:51;22.38;;;8.90;;
32535;SDS011;18974;50.838;4.636;2022-08-20T05:12:17;27.67;;;8.32;;
32535;SDS011;18974;50.838;4.636;2022-08-20T05:14:43;21.05;;;7.82;;
32535;SDS011;18974;50.838;4.636;2022-08-20T05:17:09;22.63;;;7.38;;
32535;SDS011;18974;50.838;4.636;2022-08-20T05:19:38;19.58;;;8.32;;
32535;SDS011;18974;50.838;4.636;2022-08-20T05:22:05;20.98;;;8.48;;
32535;SDS011;18974;50.838;4.636;2022-08-20T05:24:31;28.45;;;8.90;;
32535;SDS011;18974;50.838;4.636;2022-08-20T05:26:58;24.08;;;9.10;;
32535;SDS011;18974;50.838;4.636;2022-08-20T05:29:25;23.20;;;8.02;;
32535;SDS011;18974;50.838;4.636;2022-08-20T05:31:51;17.02;;;8.07;;
32535;SDS011;18974;50.838;4.636;2022-08-20T05:34:17;26.90;;;8.57;;
32535;SDS011;18974;50.838;4.636;2022-08-20T05:36:44;30.48;;;8.82;;
32535;SDS011;18974;50.838;4.636;2022-08-20T05:39:12;21.33;;;8.00;;
32535;SDS011;18974;50.838;4.636;2022-08-20T05:41:39;25.30;;;7.97;;
32535;SDS011;18974;50.838;4.636;2022-08-20T05:44:07;31.42;;;8.65;;
32535;SDS011;18974;50.838;4.636;2022-08-20T05:46:37;27.75;;;8.35;;
32535;SDS011;18974;50.838;4.636;2022-08-20T05:49:04;29.48;;;8.45;;
32535;SDS011;18974;50.838;4.636;2022-08-20T05:51:31;25.10;;;7.97;;
32535;SDS011;18974;50.838;4.636;2022-08-20T05:53:57;27.80;;;7.82;;
32535;SDS011;18974;50.838;4.636;2022-08-20T05:56:23;24.17;;;8.23;;
32535;SDS011;18974;50.838;4.636;2022-08-20T05:58:48;23.20;;;8.60;;
32535;SDS011;18974;50.838;4.636;2022-08-20T06:01:14;27.35;;;9.07;;
32535;SDS011;18974;50.838;4.636;2022-08-20T06:03:40;25.98;;;7.95;;
32535;SDS011;18974;50.838;4.636;2022-08-20T06:06:24;22.20;;;8.00;;
32535;SDS011;18974;50.838;4.636;2022-08-20T06:08:49;18.00;;;7.55;;
32535;SDS011;18974;50.838;4.636;2022-08-20T06:11:15;30.52;;;8.35;;
32535;SDS011;18974;50.838;4.636;2022-08-20T06:13:42;22.30;;;7.45;;
32535;SDS011;18974;50.838;4.636;2022-08-20T06:16:07;24.23;;;7.68;;
32535;SDS011;18974;50.838;4.636;2022-08-20T06:18:33;21.98;;;7.28;;
32535;SDS011;18974;50.838;4.636;2022-08-20T06:20:59;21.33;;;7.65;;
32535;SDS011;18974;50.838;4.636;2022-08-20T06:23:24;20.73;;;7.32;;
32535;SDS011;18974;50.838;4.636;2022-08-20T06:25:50;23.08;;;8.52;;
32535;SDS011;18974;50.838;4.636;2022-08-20T06:28:17;20.98;;;7.50;;
32535;SDS011;18974;50.838;4.636;2022-08-20T06:30:42;27.33;;;7.38;;
32535;SDS011;18974;50.838;4.636;2022-08-20T06:33:08;21.92;;;6.50;;
32535;SDS011;18974;50.838;4.636;2022-08-20T06:35:34;19.83;;;6.78;;
32535;SDS011;18974;50.838;4.636;2022-08-20T06:38:01;24.17;;;7.40;;
32535;SDS011;18974;50.838;4.636;2022-08-20T06:40:28;17.30;;;7.05;;
32535;SDS011;18974;50.838;4.636;2022-08-20T06:42:54;22.42;;;6.55;;
32535;SDS011;18974;50.838;4.636;2022-08-20T06:45:22;30.65;;;8.38;;
32535;SDS011;18974;50.838;4.636;2022-08-20T06:47:54;18.05;;;6.20;;
32535;SDS011;18974;50.838;4.636;2022-08-20T06:50:25;17.63;;;6.88;;
32535;SDS011;18974;50.838;4.636;2022-08-20T06:53:04;18.15;;;6.43;;
32535;SDS011;18974;50.838;4.636;2022-08-20T06:55:34;21.52;;;7.18;;
32535;SDS011;18974;50.838;4.636;2022-08-20T06:58:04;20.13;;;7.07;;
32535;SDS011;18974;50.838;4.636;2022-08-20T07:00:32;18.65;;;6.88;;
32535;SDS011;18974;50.838;4.636;2022-08-20T07:02:58;27.33;;;7.38;;
32535;SDS011;18974;50.838;4.636;2022-08-20T07:05:29;16.17;;;5.95;;
32535;SDS011;18974;50.838;4.636;2022-08-20T07:07:56;20.63;;;7.00;;
32535;SDS011;18974;50.838;4.636;2022-08-20T07:10:23;23.15;;;7.82;;
32535;SDS011;18974;50.838;4.636;2022-08-20T07:12:50;15.40;;;6.82;;
32535;SDS011;18974;50.838;4.636;2022-08-20T07:15:16;21.98;;;6.45;;
32535;SDS011;18974;50.838;4.636;2022-08-20T07:17:48;19.23;;;7.43;;
32535;SDS011;18974;50.838;4.636;2022-08-20T07:20:19;19.03;;;7.40;;
32535;SDS011;18974;50.838;4.636;2022-08-20T07:22:45;21.95;;;7.97;;
32535;SDS011;18974;50.838;4.636;2022-08-20T07:25:12;14.40;;;6.97;;
32535;SDS011;18974;50.838;4.636;2022-08-20T07:27:40;18.13;;;6.75;;
32535;SDS011;18974;50.838;4.636;2022-08-20T07:30:08;16.45;;;6.85;;
32535;SDS011;18974;50.838;4.636;2022-08-20T07:32:53;16.45;;;6.55;;
32535;SDS011;18974;50.838;4.636;2022-08-20T07:35:19;28.50;;;8.88;;
32535;SDS011;18974;50.838;4.636;2022-08-20T07:37:47;25.30;;;8.35;;
32535;SDS011;18974;50.838;4.636;2022-08-20T07:40:25;21.10;;;9.57;;
32535;SDS011;18974;50.838;4.636;2022-08-20T07:42:53;19.55;;;9.13;;
32535;SDS011;18974;50.838;4.636;2022-08-20T07:45:19;30.02;;;9.48;;
32535;SDS011;18974;50.838;4.636;2022-08-20T07:47:45;18.08;;;9.45;;
32535;SDS011;18974;50.838;4.636;2022-08-20T07:50:15;31.35;;;11.90;;
32535;SDS011;18974;50.838;4.636;2022-08-20T07:52:43;24.73;;;11.38;;
32535;SDS011;18974;50.838;4.636;2022-08-20T07:55:10;20.27;;;9.70;;
32535;SDS011;18974;50.838;4.636;2022-08-20T07:57:37;24.80;;;10.90;;
32535;SDS011;18974;50.838;4.636;2022-08-20T08:00:04;16.33;;;9.15;;
32535;SDS011;18974;50.838;4.636;2022-08-20T08:02:32;29.80;;;12.00;;
32535;SDS011;18974;50.838;4.636;2022-08-20T08:04:58;22.40;;;10.88;;
32535;SDS011;18974;50.838;4.636;2022-08-20T08:07:23;21.25;;;12.38;;
32535;SDS011;18974;50.838;4.636;2022-08-20T08:09:50;22.65;;;11.35;;
32535;SDS011;18974;50.838;4.636;2022-08-20T08:12:17;21.35;;;11.32;;
32535;SDS011;18974;50.838;4.636;2022-08-20T08:14:43;24.95;;;12.38;;
32535;SDS011;18974;50.838;4.636;2022-08-20T08:17:10;21.35;;;11.35;;
32535;SDS011;18974;50.838;4.636;2022-08-20T08:19:38;23.35;;;11.82;;
32535;SDS011;18974;50.838;4.636;2022-08-20T08:22:07;23.48;;;11.10;;
32535;SDS011;18974;50.838;4.636;2022-08-20T08:24:36;20.98;;;10.85;;
32535;SDS011;18974;50.838;4.636;2022-08-20T08:27:03;22.92;;;11.27;;
32535;SDS011;18974;50.838;4.636;2022-08-20T08:29:29;23.05;;;11.05;;
32535;SDS011;18974;50.838;4.636;2022-08-20T08:31:54;19.40;;;9.07;;
32535;SDS011;18974;50.838;4.636;2022-08-20T08:34:20;21.85;;;9.77;;
32535;SDS011;18974;50.838;4.636;2022-08-20T08:36:53;20.05;;;9.57;;
32535;SDS011;18974;50.838;4.636;2022-08-20T08:39:22;16.00;;;8.73;;
32535;SDS011;18974;50.838;4.636;2022-08-20T08:41:49;19.80;;;7.85;;
32535;SDS011;18974;50.838;4.636;2022-08-20T08:44:17;17.95;;;7.60;;
32535;SDS011;18974;50.838;4.636;2022-08-20T08:46:47;12.60;;;6.70;;
32535;SDS011;18974;50.838;4.636;2022-08-20T08:49:17;15.85;;;6.53;;
32535;SDS011;18974;50.838;4.636;2022-08-20T08:51:47;14.63;;;6.40;;
32535;SDS011;18974;50.838;4.636;2022-08-20T08:54:21;15.55;;;6.22;;
32535;SDS011;18974;50.838;4.636;2022-08-20T08:56:48;14.48;;;6.13;;
32535;SDS011;18974;50.838;4.636;2022-08-20T08:59:15;13.30;;;5.25;;
32535;SDS011;18974;50.838;4.636;2022-08-20T09:01:44;12.30;;;6.13;;
32535;SDS011;18974;50.838;4.636;2022-08-20T09:04:17;12.27;;;4.53;;
32535;SDS011;18974;50.838;4.636;2022-08-20T09:06:46;8.25;;;3.47;;
32535;SDS011;18974;50.838;4.636;2022-08-20T09:09:17;13.68;;;3.92;;
32535;SDS011;18974;50.838;4.636;2022-08-20T09:11:47;11.63;;;3.70;;
32535;SDS011;18974;50.838;4.636;2022-08-20T09:14:17;8.88;;;2.90;;
32535;SDS011;18974;50.838;4.636;2022-08-20T09:16:43;7.00;;;2.45;;
32535;SDS011;18974;50.838;4.636;2022-08-20T09:19:09;9.15;;;3.25;;
32535;SDS011;18974;50.838;4.636;2022-08-20T09:21:34;10.93;;;3.58;;
32535;SDS011;18974;50.838;4.636;2022-08-20T09:24:00;8.32;;;3.40;;
32535;SDS011;18974;50.838;4.636;2022-08-20T09:26:26;6.72;;;2.55;;
32535;SDS011;18974;50.838;4.636;2022-08-20T09:28:51;17.20;;;2.78;;
32535;SDS011;18974;50.838;4.636;2022-08-20T09:31:17;13.88;;;2.75;;
32535;SDS011;18974;50.838;4.636;2022-08-20T09:33:43;6.90;;;2.50;;
32535;SDS011;18974;50.838;4.636;2022-08-20T09:36:08;7.55;;;2.20;;
32535;SDS011;18974;50.838;4.636;2022-08-20T09:38:34;15.32;;;3.22;;
32535;SDS011;18974;50.838;4.636;2022-08-20T09:41:00;6.57;;;2.58;;
32535;SDS011;18974;50.838;4.636;2022-08-20T09:43:25;7.80;;;1.77;;
32535;SDS011;18974;50.838;4.636;2022-08-20T09:45:51;6.18;;;3.03;;
32535;SDS011;18974;50.838;4.636;2022-08-20T09:48:16;11.07;;;2.58;;
32535;SDS011;18974;50.838;4.636;2022-08-20T09:50:46;9.35;;;2.35;;
32535;SDS011;18974;50.838;4.636;2022-08-20T09:53:13;6.25;;;1.90;;
32535;SDS011;18974;50.838;4.636;2022-08-20T09:55:45;10.82;;;2.20;;
32535;SDS011;18974;50.838;4.636;2022-08-20T09:58:23;12.18;;;2.40;;
32535;SDS011;18974;50.838;4.636;2022-08-20T10:01:07;8.40;;;2.42;;
32535;SDS011;18974;50.838;4.636;2022-08-20T10:03:41;6.75;;;1.60;;
32535;SDS011;18974;50.838;4.636;2022-08-20T10:06:07;8.73;;;2.08;;
32535;SDS011;18974;50.838;4.636;2022-08-20T10:08:35;8.15;;;2.20;;
32535;SDS011;18974;50.838;4.636;2022-08-20T10:11:01;11.02;;;2.53;;
32535;SDS011;18974;50.838;4.636;2022-08-20T10:13:29;10.23;;;1.92;;
32535;SDS011;18974;50.838;4.636;2022-08-20T10:15:55;11.93;;;2.33;;
32535;SDS011;18974;50.838;4.636;2022-08-20T10:18:21;8.43;;;1.98;;
32535;SDS011;18974;50.838;4.636;2022-08-20T10:20:47;8.90;;;2.00;;
32535;SDS011;18974;50.838;4.636;2022-08-20T10:23:13;7.88;;;1.67;;
32535;SDS011;18974;50.838;4.636;2022-08-20T10:25:38;5.72;;;1.98;;
32535;SDS011;18974;50.838;4.636;2022-08-20T10:28:05;8.50;;;2.03;;
32535;SDS011;18974;50.838;4.636;2022-08-20T10:30:31;5.28;;;1.80;;
32535;SDS011;18974;50.838;4.636;2022-08-20T10:32:57;7.53;;;1.65;;
32535;SDS011;18974;50.838;4.636;2022-08-20T10:35:22;6.38;;;2.03;;
32535;SDS011;18974;50.838;4.636;2022-08-20T10:37:48;8.10;;;1.90;;
32535;SDS011;18974;50.838;4.636;2022-08-20T10:40:14;7.80;;;2.05;;
32535;SDS011;18974;50.838;4.636;2022-08-20T10:42:41;9.57;;;1.98;;
32535;SDS011;18974;50.838;4.636;2022-08-20T10:45:07;8.15;;;2.03;;
32535;SDS011;18974;50.838;4.636;2022-08-20T10:47:34;7.57;;;2.47;;
32535;SDS011;18974;50.838;4.636;2022-08-20T10:50:01;7.57;;;1.90;;
32535;SDS011;18974;50.838;4.636;2022-08-20T10:52:28;8.98;;;1.70;;
32535;SDS011;18974;50.838;4.636;2022-08-20T10:54:54;7.20;;;1.48;;
32535;SDS011;18974;50.838;4.636;2022-08-20T10:57:22;6.90;;;1.75;;
32535;SDS011;18974;50.838;4.636;2022-08-20T10:59:50;9.35;;;1.58;;
32535;SDS011;18974;50.838;4.636;2022-08-20T11:02:18;8.63;;;2.28;;
32535;SDS011;18974;50.838;4.636;2022-08-20T11:04:44;9.45;;;1.88;;
32535;SDS011;18974;50.838;4.636;2022-08-20T11:07:15;7.35;;;1.60;;
32535;SDS011;18974;50.838;4.636;2022-08-20T11:09:43;4.75;;;1.60;;
32535;SDS011;18974;50.838;4.636;2022-08-20T11:12:10;6.43;;;1.70;;
32535;SDS011;18974;50.838;4.636;2022-08-20T11:14:36;7.15;;;1.95;;
32535;SDS011;18974;50.838;4.636;2022-08-20T11:17:02;6.10;;;2.33;;
32535;SDS011;18974;50.838;4.636;2022-08-20T11:19:32;7.00;;;1.85;;
32535;SDS011;18974;50.838;4.636;2022-08-20T11:22:02;8.40;;;1.75;;
32535;SDS011;18974;50.838;4.636;2022-08-20T11:24:28;8.40;;;1.85;;
32535;SDS011;18974;50.838;4.636;2022-08-20T11:26:53;8.82;;;2.53;;
32535;SDS011;18974;50.838;4.636;2022-08-20T11:29:19;6.30;;;2.17;;
32535;SDS011;18974;50.838;4.636;2022-08-20T11:31:46;10.02;;;2.38;;
32535;SDS011;18974;50.838;4.636;2022-08-20T11:34:13;6.18;;;1.83;;
32535;SDS011;18974;50.838;4.636;2022-08-20T11:36:39;8.75;;;2.05;;
32535;SDS011;18974;50.838;4.636;2022-08-20T11:39:05;7.70;;;1.88;;
32535;SDS011;18974;50.838;4.636;2022-08-20T11:41:30;4.63;;;1.70;;
32535;SDS011;18974;50.838;4.636;2022-08-20T11:43:56;8.20;;;1.88;;
32535;SDS011;18974;50.838;4.636;2022-08-20T11:46:24;5.53;;;2.08;;
32535;SDS011;18974;50.838;4.636;2022-08-20T11:48:50;7.95;;;2.53;;
32535;SDS011;18974;50.838;4.636;2022-08-20T11:51:15;7.53;;;1.60;;
32535;SDS011;18974;50.838;4.636;2022-08-20T11:53:41;6.15;;;1.70;;
32535;SDS011;18974;50.838;4.636;2022-08-20T11:56:07;15.13;;;2.83;;
32535;SDS011;18974;50.838;4.636;2022-08-20T11:58:45;6.03;;;1.80;;
32535;SDS011;18974;50.838;4.636;2022-08-20T12:01:11;7.78;;;2.78;;
32535;SDS011;18974;50.838;4.636;2022-08-20T12:03:38;7.90;;;1.85;;
32535;SDS011;18974;50.838;4.636;2022-08-20T12:06:03;7.90;;;2.10;;
32535;SDS011;18974;50.838;4.636;2022-08-20T12:08:29;6.10;;;2.20;;
32535;SDS011;18974;50.838;4.636;2022-08-20T12:10:56;11.13;;;3.22;;
32535;SDS011;18974;50.838;4.636;2022-08-20T12:13:23;8.20;;;2.10;;
32535;SDS011;18974;50.838;4.636;2022-08-20T12:15:52;9.57;;;2.47;;
32535;SDS011;18974;50.838;4.636;2022-08-20T12:18:18;6.40;;;2.25;;
32535;SDS011;18974;50.838;4.636;2022-08-20T12:20:44;9.18;;;2.30;;
32535;SDS011;18974;50.838;4.636;2022-08-20T12:23:10;6.70;;;2.60;;
32535;SDS011;18974;50.838;4.636;2022-08-20T12:25:35;6.43;;;2.03;;
32535;SDS011;18974;50.838;4.636;2022-08-20T12:28:01;6.75;;;1.83;;
32535;SDS011;18974;50.838;4.636;2022-08-20T12:30:29;10.32;;;2.25;;
32535;SDS011;18974;50.838;4.636;2022-08-20T12:32:55;9.65;;;2.53;;
32535;SDS011;18974;50.838;4.636;2022-08-20T12:35:21;7.40;;;2.35;;
32535;SDS011;18974;50.838;4.636;2022-08-20T12:37:49;8.40;;;2.47;;
32535;SDS011;18974;50.838;4.636;2022-08-20T12:40:19;10.00;;;2.15;;
32535;SDS011;18974;50.838;4.636;2022-08-20T12:42:47;5.88;;;2.10;;
32535;SDS011;18974;50.838;4.636;2022-08-20T12:45:13;5.88;;;1.85;;
32535;SDS011;18974;50.838;4.636;2022-08-20T12:47:41;10.80;;;2.40;;
32535;SDS011;18974;50.838;4.636;2022-08-20T12:50:10;9.55;;;2.85;;
32535;SDS011;18974;50.838;4.636;2022-08-20T12:52:42;8.85;;;2.17;;
32535;SDS011;18974;50.838;4.636;2022-08-20T12:55:09;5.15;;;1.88;;
32535;SDS011;18974;50.838;4.636;2022-08-20T12:57:41;8.18;;;1.95;;
32535;SDS011;18974;50.838;4.636;2022-08-20T13:00:13;6.00;;;2.03;;
32535;SDS011;18974;50.838;4.636;2022-08-20T13:02:45;8.90;;;3.08;;
32535;SDS011;18974;50.838;4.636;2022-08-20T13:05:11;5.90;;;2.03;;
32535;SDS011;18974;50.838;4.636;2022-08-20T13:07:38;7.40;;;1.83;;
32535;SDS011;18974;50.838;4.636;2022-08-20T13:10:05;5.22;;;1.65;;
32535;SDS011;18974;50.838;4.636;2022-08-20T13:12:32;7.25;;;1.88;;
32535;SDS011;18974;50.838;4.636;2022-08-20T13:14:58;7.35;;;1.80;;
32535;SDS011;18974;50.838;4.636;2022-08-20T13:17:24;3.33;;;1.60;;
32535;SDS011;18974;50.838;4.636;2022-08-20T13:19:50;5.72;;;1.80;;
32535;SDS011;18974;50.838;4.636;2022-08-20T13:22:15;5.63;;;1.70;;
32535;SDS011;18974;50.838;4.636;2022-08-20T13:24:41;5.93;;;1.67;;
32535;SDS011;18974;50.838;4.636;2022-08-20T13:27:14;4.40;;;1.65;;
32535;SDS011;18974;50.838;4.636;2022-08-20T13:29:47;4.63;;;1.75;;
32535;SDS011;18974;50.838;4.636;2022-08-20T13:32:14;4.35;;;1.38;;
32535;SDS011;18974;50.838;4.636;2022-08-20T13:34:41;6.05;;;1.77;;
32535;SDS011;18974;50.838;4.636;2022-08-20T13:37:13;5.85;;;2.10;;
32535;SDS011;18974;50.838;4.636;2022-08-20T13:39:44;4.75;;;1.77;;
32535;SDS011;18974;50.838;4.636;2022-08-20T13:42:10;4.28;;;1.65;;
32535;SDS011;18974;50.838;4.636;2022-08-20T13:44:37;3.88;;;1.50;;
32535;SDS011;18974;50.838;4.636;2022-08-20T13:47:20;5.53;;;1.70;;
32535;SDS011;18974;50.838;4.636;2022-08-20T13:49:54;6.32;;;1.73;;
32535;SDS011;18974;50.838;4.636;2022-08-20T13:52:20;5.18;;;1.58;;
32535;SDS011;18974;50.838;4.636;2022-08-20T13:54:45;5.07;;;2.17;;
32535;SDS011;18974;50.838;4.636;2022-08-20T13:57:12;5.57;;;1.38;;
32535;SDS011;18974;50.838;4.636;2022-08-20T13:59:41;7.43;;;1.50;;
32535;SDS011;18974;50.838;4.636;2022-08-20T14:02:09;3.97;;;1.30;;
32535;SDS011;18974;50.838;4.636;2022-08-20T14:04:35;3.72;;;1.58;;
32535;SDS011;18974;50.838;4.636;2022-08-20T14:07:11;5.97;;;1.63;;
32535;SDS011;18974;50.838;4.636;2022-08-20T14:09:39;3.88;;;1.08;;
32535;SDS011;18974;50.838;4.636;2022-08-20T14:12:06;5.85;;;1.85;;
32535;SDS011;18974;50.838;4.636;2022-08-20T14:14:33;5.72;;;1.50;;
32535;SDS011;18974;50.838;4.636;2022-08-20T14:16:59;5.00;;;1.75;;
32535;SDS011;18974;50.838;4.636;2022-08-20T14:19:36;2.80;;;1.10;;
32535;SDS011;18974;50.838;4.636;2022-08-20T14:22:02;5.85;;;1.08;;
32535;SDS011;18974;50.838;4.636;2022-08-20T14:24:27;1.83;;;1.27;;
32535;SDS011;18974;50.838;4.636;2022-08-20T14:26:56;8.88;;;1.42;;
32535;SDS011;18974;50.838;4.636;2022-08-20T14:29:21;5.55;;;0.95;;
32535;SDS011;18974;50.838;4.636;2022-08-20T14:31:47;6.43;;;1.27;;
32535;SDS011;18974;50.838;4.636;2022-08-20T14:34:13;6.30;;;1.20;;
32535;SDS011;18974;50.838;4.636;2022-08-20T14:36:39;4.93;;;1.40;;
32535;SDS011;18974;50.838;4.636;2022-08-20T14:39:06;4.30;;;1.13;;
32535;SDS011;18974;50.838;4.636;2022-08-20T14:41:32;5.95;;;1.30;;
32535;SDS011;18974;50.838;4.636;2022-08-20T14:43:57;3.95;;;1.10;;
32535;SDS011;18974;50.838;4.636;2022-08-20T14:46:23;3.95;;;1.23;;